Portada
METAR-TAF:

METAR-TAF

Aeroports :

Hyderabad, Índia

latitud: 17-27N, longitud: 078-28E, altitud: 530 m

Observació

L'informe es va fer fa 30 minuts, a les 12:30 UTC
Vent calma
Temperatura 25°C
Humitat 74%
Pressió 1017 hPa
Visibilitat: 5000 m
Núvols disperses a una alçada de 1500 ft
calitja

METAR: VOHY 081230Z 00000KT 5000 HZ SCT015 25/20 Q1017 TEMPO 4000 HZ

Hora: 18:30 (13:00 UTC)

Pronòstic

L'informe es va fer fa 2 hores i 0 minuts, a les 11:00 UTC
Pronòstic vàlid del 08 a les 12 UTC al 08 a les 21 UTC
Vent 6 kt del Est/Sud-Est
Visibilitat: 5000 m
Núvols disperses a una alçada de 1500 ft
calitja, boirina

TAF: VOHY 081100Z 0812/0821 12006KT 5000 HZ BR SCT015

Observacions i pronòstics meteorològics de més de 4000 aeroports (METAR i TAF).

Les estacions disponibles són els punts grocs i vermells al mapa.

Posi el ratolí al punt desitjat per veure el nom de l'estació.

Feu clic per veure les observacions i els pronòstics meteorològics.

Per canviar el mapa: feu clic els botons verds amb una creu de color negre per apropar; al botó verd amb un guió per allunyar la imatge; o en les fletxes verdes per a mapes adjacents.


METAR-TAF: